Sunday, December 17, 2017, 10:18 PM EST
Back to Local

KHLG, Wheeling Ohio County Airport

Location: Wheeling, WV, United States Lat: 40.167
Local Time: 10:18 PM EST ( 3:18 GMT) Lon: -80.65
Time Zone: US/Eastern Elev: 1194 ft

Show me the last for .
Show Coded

Time T Td Feel RH Dir Speed Gust Alt SLP Vis Weather Sky Remarks
2017-12-17 21:53 38 31 33 75 160° 6 - 30.09 30.12 10 BKN065 OVC075 None
2017-12-17 20:53 37 32 34 81 130° 3 - 30.10 30.14 10 OVC075 None
2017-12-17 19:53 36 32 31 85 130° 6 - 30.11 30.14 10 OVC065 None
2017-12-17 18:53 35 33 29 92 120° 8 - 30.11 30.14 8 OVC075 6-hr Precip Total (7pm): 0.02"
6-hr Min Temp (7pm): 35.1°F
6-hr Max Temp (7pm): 41.0°F
2017-12-17 17:53 35 33 30 92 100° 6 - 30.12 30.16 7 OVC065 1-hr Precip Total: Trace
2017-12-17 16:53 37 33 - 85 - Calm - 30.14 30.17 9 -RA BKN055 OVC075 1-hr Precip Total: 0.01"
2017-12-17 15:53 38 31 - 75 - Calm - 30.15 30.18 7 -RA OVC046 1-hr Precip Total: 0.01"
6-hr Precip Total (4pm): 0.01"
2017-12-17 14:53 41 28 38 59 190° 5 - 30.09 30.12 10 FEW070 OVC090 None
2017-12-17 13:53 41 28 36 59 210° 7 - 30.10 30.14 10 BKN110 None
2017-12-17 12:53 40 28 36 62 180° 6 - 30.14 30.17 10 SCT120 6-hr Min Temp (1pm): 34.0°F
6-hr Max Temp (1pm): 39.9°F
2017-12-17 11:53 39 27 35 61 170° 6 - 30.16 30.20 10 CLR None
2017-12-17 10:53 37 27 32 66 180° 7 - 30.21 30.24 10 CLR None
2017-12-17 09:53 37 27 31 66 200° 8 - 30.22 30.26 10 CLR None
2017-12-17 08:53 36 26 32 66 200° 5 - 30.19 30.22 10 CLR None
2017-12-17 07:53 34 26 27 72 190° 9 - 30.19 30.22 10 CLR None
2017-12-17 06:53 34 26 29 72 190° 6 - 30.18 30.22 10 CLR 6-hr Min Temp (7am): 34.0°F
6-hr Max Temp (7am): 36.0°F
2017-12-17 05:53 34 26 28 72 190° 7 - 30.18 30.21 10 CLR None
2017-12-17 04:53 34 25 29 69 200° 6 - 30.17 30.20 10 CLR None
2017-12-17 03:53 34 25 28 69 190° 7 - 30.17 30.20 10 CLR None
2017-12-17 02:53 35 25 29 66 180° 7 - 30.17 30.21 10 CLR None
2017-12-17 01:53 35 25 30 66 190° 6 - 30.17 30.20 10 CLR None
2017-12-17 00:53 34 24 28 66 210° 7 - 30.16 30.19 10 CLR 6-hr Min Temp (1am): 34.0°F
6-hr Max Temp (1am): 37.9°F
2017-12-16 23:53 35 25 29 66 210° 8 - 30.15 30.19 10 CLR 24-hr Min Temp (12am): 27.0°F
24-hr Max Temp (12am): 44.1°F
2017-12-16 22:53 35 24 29 63 210° 8 - 30.14 30.18 10 CLR None

Support USWX by starting your Amazon purchase here.